Time;durP1;ratioP1;P1;durP2;ratioP2;P2;SDS_P1;SDS_P2;PMS_P1;PMS_P2;Temp;Humidity;BMP_temperature;BMP_pressure;BME280_temperature;BME280_humidity;BME280_pressure;Samples;Min_cycle;Max_cycle;Signal;HPM_P1;HPM_P2
2022/08/17 00:00:13;;;;;;;29.75;23.50;;;20.30;99.90;;;;;;6175200;23;20017;-85
2022/08/17 00:03:02;;;;;;;32.35;27.23;;;20.20;99.90;;;;;;6148745;23;20469;-85
2022/08/17 00:05:32;;;;;;;29.95;24.48;;;20.20;99.90;;;;;;6176511;23;20372;-85
2022/08/17 00:07:58;;;;;;;34.55;26.60;;;20.20;99.90;;;;;;6149764;23;20017;-85
2022/08/17 00:10:24;;;;;;;30.08;26.48;;;20.30;99.90;;;;;;6148710;23;20013;-85
2022/08/17 00:12:49;;;;;;;32.22;26.85;;;20.20;99.90;;;;;;6173846;22;20103;-85
2022/08/17 00:15:15;;;;;;;30.52;23.48;;;20.30;99.90;;;;;;6174882;23;20017;-85
2022/08/17 00:17:41;;;;;;;32.70;25.67;;;20.30;99.90;;;;;;6175601;22;20110;-85
2022/08/17 00:20:08;;;;;;;35.65;28.23;;;20.30;99.90;;;;;;6174728;23;20106;-85
2022/08/17 00:22:34;;;;;;;34.22;27.70;;;20.40;99.90;;;;;;6174394;23;20452;-85
2022/08/17 00:24:59;;;;;;;34.40;27.73;;;20.30;99.90;;;;;;6149222;23;20051;-85
2022/08/17 00:27:25;;;;;;;40.40;28.92;;;20.30;99.90;;;;;;6174416;22;20048;-85
2022/08/17 00:29:54;;;;;;;33.70;27.80;;;20.30;99.90;;;;;;6175705;22;20473;-85
2022/08/17 00:32:19;;;;;;;35.25;28.70;;;20.30;99.90;;;;;;6175790;22;20088;-85
2022/08/17 00:34:45;;;;;;;32.97;28.02;;;20.20;99.90;;;;;;6174174;22;20457;-85
2022/08/17 00:37:10;;;;;;;34.17;28.10;;;20.20;99.90;;;;;;6174431;22;20009;-85
2022/08/17 00:39:36;;;;;;;32.05;26.58;;;20.10;99.90;;;;;;6173487;22;20035;-85
2022/08/17 00:42:15;;;;;;;30.60;26.38;;;20.10;99.90;;;;;;6176438;22;20013;-85
2022/08/17 00:44:40;;;;;;;34.90;26.08;;;20.00;99.90;;;;;;6174037;23;20017;-85
2022/08/17 00:47:06;;;;;;;33.58;26.15;;;20.00;99.90;;;;;;6174407;22;20017;-85
2022/08/17 00:49:32;;;;;;;33.05;27.75;;;20.00;99.90;;;;;;6174309;22;20518;-86
2022/08/17 00:52:05;;;;;;;35.20;28.60;;;19.90;99.90;;;;;;6174122;23;20051;-85
2022/08/17 00:54:35;;;;;;;30.58;25.95;;;19.90;99.90;;;;;;6173938;23;20028;-85
2022/08/17 00:57:09;;;;;;;27.80;23.45;;;19.80;99.90;;;;;;6174271;23;20446;-85
2022/08/17 00:59:47;;;;;;;38.17;27.90;;;19.80;99.90;;;;;;6175934;23;20345;-84
2022/08/17 01:02:15;;;;;;;32.83;28.60;;;19.90;99.90;;;;;;6173926;23;20021;-85
2022/08/17 01:04:43;;;;;;;38.83;30.55;;;19.80;99.90;;;;;;6173537;23;20031;-85
2022/08/17 01:07:10;;;;;;;32.72;28.58;;;19.80;99.90;;;;;;6175862;23;20088;-85
2022/08/17 01:09:36;;;;;;;35.78;29.23;;;19.80;99.90;;;;;;6173908;23;20101;-85
2022/08/17 01:12:05;;;;;;;37.92;30.75;;;19.70;99.90;;;;;;6174339;22;20071;-85
2022/08/17 01:14:30;;;;;;;35.83;30.08;;;19.70;99.90;;;;;;6175545;23;20021;-85
2022/08/17 01:16:56;;;;;;;35.70;28.92;;;19.60;99.90;;;;;;6175820;22;20035;-85
2022/08/17 01:19:29;;;;;;;38.28;28.33;;;19.60;99.90;;;;;;6175772;22;20017;-85
2022/08/17 01:22:11;;;;;;;36.40;29.50;;;19.60;99.90;;;;;;6175167;23;20341;-85
2022/08/17 01:24:40;;;;;;;42.20;31.67;;;19.50;99.90;;;;;;6173784;22;20079;-85
2022/08/17 01:27:08;;;;;;;38.60;31.98;;;19.60;99.90;;;;;;6176118;23;20133;-85
2022/08/17 01:29:36;;;;;;;38.58;31.80;;;19.60;99.90;;;;;;6175687;23;20017;-85
2022/08/17 01:32:04;;;;;;;39.65;32.42;;;19.50;99.90;;;;;;6174424;23;20318;-85
2022/08/17 01:34:30;;;;;;;40.53;32.92;;;19.50;99.90;;;;;;6173940;23;20028;-85
2022/08/17 01:36:57;;;;;;;33.78;26.73;;;19.60;99.90;;;;;;6173064;23;20013;-85
2022/08/17 01:39:57;;;;;;;43.53;33.58;;;19.60;99.90;;;;;;6149341;23;20019;-85
2022/08/17 01:42:29;;;;;;;44.45;34.50;;;19.60;99.90;;;;;;6181741;22;20398;-85
2022/08/17 01:44:59;;;;;;;44.00;34.42;;;19.60;99.90;;;;;;6173188;23;20017;-85
2022/08/17 01:47:25;;;;;;;43.53;34.85;;;19.50;99.90;;;;;;6175652;23;20021;-85
2022/08/17 01:49:50;;;;;;;41.60;32.60;;;19.50;99.90;;;;;;6173518;22;20009;-85
2022/08/17 01:52:16;;;;;;;37.80;30.95;;;19.50;99.90;;;;;;6173201;22;20113;-85
2022/08/17 01:54:45;;;;;;;37.83;33.08;;;19.50;99.90;;;;;;6173534;23;20019;-85
2022/08/17 01:57:11;;;;;;;36.40;29.98;;;19.70;99.90;;;;;;6173642;23;20067;-85
2022/08/17 01:59:37;;;;;;;32.95;28.98;;;19.50;99.90;;;;;;6175662;23;20021;-85
2022/08/17 02:02:04;;;;;;;29.58;26.38;;;19.50;99.90;;;;;;6174155;22;20021;-85
2022/08/17 02:04:30;;;;;;;30.92;25.92;;;19.50;99.90;;;;;;6173496;23;20025;-85
2022/08/17 02:06:57;;;;;;;26.40;23.73;;;19.40;99.90;;;;;;6148120;23;20066;-84
2022/08/17 02:09:24;;;;;;;29.42;26.35;;;19.50;99.90;;;;;;6174235;23;20043;-85
2022/08/17 02:11:50;;;;;;;49.13;26.48;;;19.40;99.90;;;;;;6173433;23;20515;-85
2022/08/17 02:14:15;;;;;;;26.98;24.27;;;19.40;99.90;;;;;;6174036;23;20021;-85
2022/08/17 02:16:41;;;;;;;36.80;25.65;;;19.40;99.90;;;;;;6174383;22;20017;-85
2022/08/17 02:19:12;;;;;;;29.17;24.00;;;19.40;99.90;;;;;;6176881;22;20049;-85
2022/08/17 02:21:38;;;;;;;26.42;23.75;;;19.40;99.90;;;;;;6174237;23;20066;-85
2022/08/17 02:24:06;;;;;;;26.02;23.45;;;19.40;99.90;;;;;;6149765;23;20036;-85
2022/08/17 02:26:32;;;;;;;27.25;22.65;;;19.30;99.90;;;;;;6150286;23;20024;-85
2022/08/17 02:28:58;;;;;;;26.05;22.63;;;19.20;99.90;;;;;;6175021;22;20017;-85
2022/08/17 02:31:23;;;;;;;25.67;22.70;;;19.20;99.90;;;;;;6174971;22;20052;-85
2022/08/17 02:33:49;;;;;;;27.17;23.23;;;19.20;99.90;;;;;;6174634;22;20021;-85
2022/08/17 02:36:15;;;;;;;24.42;21.95;;;19.20;99.90;;;;;;6174731;23;20021;-85
2022/08/17 02:38:41;;;;;;;24.90;22.42;;;19.20;99.90;;;;;;6174658;22;20021;-85
2022/08/17 02:41:07;;;;;;;26.90;21.35;;;19.20;99.90;;;;;;6176886;23;20013;-85
2022/08/17 02:43:33;;;;;;;25.05;22.38;;;19.10;99.90;;;;;;6174637;23;20067;-85
2022/08/17 02:45:59;;;;;;;23.50;21.20;;;19.10;99.90;;;;;;6176792;23;20019;-85
2022/08/17 02:48:25;;;;;;;23.27;20.88;;;19.10;99.90;;;;;;6150207;23;20528;-85
2022/08/17 02:50:50;;;;;;;22.17;19.98;;;19.10;99.90;;;;;;6173804;22;20419;-85
2022/08/17 02:53:16;;;;;;;24.00;21.65;;;19.10;99.90;;;;;;6175000;22;20052;-85
2022/08/17 02:55:42;;;;;;;22.92;20.67;;;19.00;99.90;;;;;;6174530;22;20020;-85
2022/08/17 02:58:09;;;;;;;23.85;20.50;;;19.00;99.90;;;;;;6176788;23;20112;-85
2022/08/17 03:00:39;;;;;;;23.35;21.05;;;19.00;99.90;;;;;;6174335;23;20021;-85
2022/08/17 03:03:05;;;;;;;21.20;19.10;;;19.00;99.90;;;;;;6174204;23;20021;-85
2022/08/17 03:05:33;;;;;;;22.58;20.35;;;18.90;99.90;;;;;;6174730;23;20058;-85
2022/08/17 03:08:00;;;;;;;23.75;21.33;;;18.90;99.90;;;;;;6176883;23;20056;-85
2022/08/17 03:10:26;;;;;;;21.25;19.25;;;18.80;99.90;;;;;;6176485;22;20017;-85
2022/08/17 03:12:52;;;;;;;24.05;21.70;;;18.90;99.90;;;;;;6174323;23;20449;-85
2022/08/17 03:15:27;;;;;;;22.48;20.30;;;18.80;99.90;;;;;;6149989;23;20433;-85
2022/08/17 03:17:55;;;;;;;23.20;20.98;;;18.80;99.90;;;;;;6173941;23;20013;-85
2022/08/17 03:20:21;;;;;;;25.52;22.85;;;18.80;99.90;;;;;;6176773;23;20418;-85
2022/08/17 03:22:50;;;;;;;28.85;25.45;;;18.70;99.90;;;;;;6174507;23;20330;-85
2022/08/17 03:25:20;;;;;;;28.20;24.58;;;18.70;99.90;;;;;;6174407;23;20023;-85
2022/08/17 03:27:46;;;;;;;27.33;24.50;;;18.70;99.90;;;;;;6174629;23;20017;-85
2022/08/17 03:30:12;;;;;;;27.88;24.70;;;18.70;99.90;;;;;;6176747;22;20012;-85
2022/08/17 03:32:43;;;;;;;27.77;24.25;;;18.60;99.90;;;;;;6173550;23;20018;-85
2022/08/17 03:35:11;;;;;;;26.15;22.13;;;18.70;99.90;;;;;;6149707;23;20017;-85
2022/08/17 03:37:38;;;;;;;33.63;27.90;;;18.70;99.90;;;;;;6174519;23;20433;-85
2022/08/17 03:40:06;;;;;;;32.42;27.88;;;18.70;99.90;;;;;;6149609;23;20070;-85
2022/08/17 03:42:33;;;;;;;37.58;29.10;;;18.70;99.90;;;;;;6176268;23;20529;-85
2022/08/17 03:45:00;;;;;;;37.28;29.13;;;18.70;99.90;;;;;;6176302;23;20058;-85
2022/08/17 03:58:25;;;;;;;35.47;29.10;;;18.70;99.90;;;;;;6176538;22;20362;-85
2022/08/17 04:00:51;;;;;;;34.13;29.58;;;18.70;99.90;;;;;;6175944;23;20044;-85
2022/08/17 04:03:17;;;;;;;40.08;32.03;;;18.60;99.90;;;;;;6173759;23;20021;-85
2022/08/17 04:05:42;;;;;;;36.65;29.20;;;18.70;99.90;;;;;;6176003;23;20017;-85
2022/08/17 04:08:09;;;;;;;36.83;29.00;;;18.60;99.90;;;;;;6174283;23;20460;-85
2022/08/17 04:10:36;;;;;;;34.28;29.40;;;18.70;99.90;;;;;;6174553;23;20017;-85
2022/08/17 04:13:02;;;;;;;26.33;23.30;;;18.70;99.90;;;;;;6174270;23;20436;-85
2022/08/17 04:15:29;;;;;;;33.88;28.15;;;18.60;99.90;;;;;;6174658;23;20013;-85
2022/08/17 04:17:54;;;;;;;34.78;27.98;;;18.60;99.90;;;;;;6175553;23;20067;-85
2022/08/17 04:20:22;;;;;;;35.50;29.65;;;18.60;99.90;;;;;;6176280;22;20017;-85
2022/08/17 04:22:54;;;;;;;32.90;27.75;;;18.60;99.90;;;;;;6176058;22;20021;-85
2022/08/17 04:25:20;;;;;;;38.28;29.45;;;18.90;99.90;;;;;;6174833;22;20382;-85
2022/08/17 04:27:47;;;;;;;33.70;27.42;;;18.80;99.90;;;;;;6173818;22;20093;-85
2022/08/17 04:30:13;;;;;;;37.45;28.73;;;18.60;99.90;;;;;;6173825;23;20021;-85
2022/08/17 04:33:18;;;;;;;33.80;29.25;;;18.70;99.90;;;;;;6176028;23;20025;-85
2022/08/17 04:35:51;;;;;;;32.80;28.58;;;18.70;99.90;;;;;;6148898;23;20082;-85
2022/08/17 04:38:20;;;;;;;28.63;22.75;;;18.70;99.90;;;;;;6173684;23;20009;-85
2022/08/17 04:43:33;;;;;;;38.03;30.70;;;18.80;99.90;;;;;;6176299;23;20382;-85
2022/08/17 04:46:03;;;;;;;37.20;30.90;;;18.80;99.90;;;;;;6173789;23;20110;-85
2022/08/17 04:48:35;;;;;;;37.55;30.52;;;18.90;99.90;;;;;;6176143;23;20088;-85
2022/08/17 04:51:01;;;;;;;31.75;27.13;;;18.90;99.90;;;;;;6149194;23;20079;-85
2022/08/17 04:53:27;;;;;;;38.65;31.00;;;18.90;99.90;;;;;;6176321;23;20485;-85
2022/08/17 04:55:53;;;;;;;40.72;32.08;;;18.90;99.90;;;;;;6173819;22;20019;-85
2022/08/17 04:58:20;;;;;;;47.03;31.70;;;19.00;99.90;;;;;;6176586;23;20021;-85
2022/08/17 05:00:48;;;;;;;40.75;32.42;;;19.00;99.90;;;;;;6175184;23;20028;-85
2022/08/17 05:03:14;;;;;;;40.42;32.97;;;19.00;99.90;;;;;;6174262;23;20088;-85
2022/08/17 05:05:42;;;;;;;38.05;32.33;;;19.00;99.90;;;;;;6174071;22;20452;-85
2022/08/17 05:08:08;;;;;;;40.92;32.10;;;19.10;99.90;;;;;;6174406;23;20021;-85
2022/08/17 05:10:37;;;;;;;38.58;31.33;;;19.10;99.90;;;;;;6173807;23;20013;-85
2022/08/17 05:13:10;;;;;;;37.78;31.17;;;19.10;99.90;;;;;;6149482;23;20009;-85
2022/08/17 05:15:38;;;;;;;39.42;33.00;;;19.10;99.90;;;;;;6175201;23;20017;-85
2022/08/17 05:18:05;;;;;;;41.10;32.22;;;19.10;99.90;;;;;;6175921;23;20013;-85
2022/08/17 05:20:31;;;;;;;38.05;31.38;;;19.10;99.90;;;;;;6173686;23;20009;-85
2022/08/17 05:23:00;;;;;;;38.55;32.42;;;19.10;99.90;;;;;;6175652;23;20017;-85
2022/08/17 05:25:33;;;;;;;42.35;32.75;;;19.20;99.90;;;;;;6173748;23;20017;-85
2022/08/17 05:27:59;;;;;;;43.97;34.97;;;19.20;99.90;;;;;;6175999;23;20021;-85
2022/08/17 05:30:25;;;;;;;44.58;34.40;;;19.10;99.90;;;;;;6173431;23;20043;-85
2022/08/17 05:32:57;;;;;;;44.05;34.83;;;19.20;99.90;;;;;;6175911;22;20020;-85
2022/08/17 05:35:24;;;;;;;50.47;36.03;;;19.20;99.90;;;;;;6174311;23;20039;-85
2022/08/17 05:37:50;;;;;;;46.67;36.78;;;19.20;99.90;;;;;;6173878;23;20017;-85
2022/08/17 05:40:17;;;;;;;48.47;38.40;;;19.30;99.90;;;;;;6149304;23;20040;-85
2022/08/17 05:42:43;;;;;;;46.60;37.08;;;19.30;99.90;;;;;;6174725;23;20508;-85
2022/08/17 05:45:09;;;;;;;49.88;37.78;;;19.30;99.90;;;;;;6175854;22;20025;-85
2022/08/17 05:47:38;;;;;;;48.58;37.17;;;19.30;99.90;;;;;;6148753;23;20452;-85
2022/08/17 05:50:06;;;;;;;46.92;39.47;;;19.30;99.90;;;;;;6176757;23;20058;-85
2022/08/17 05:53:04;;;;;;;43.30;34.60;;;19.30;99.90;;;;;;6176865;23;20085;-85
2022/08/17 05:55:55;;;;;;;45.40;33.97;;;19.40;99.90;;;;;;6177109;23;20031;-85
2022/08/17 05:58:37;;;;;;;48.97;37.85;;;19.40;99.90;;;;;;6176591;23;20417;-85
2022/08/17 06:01:19;;;;;;;54.45;38.17;;;19.40;99.90;;;;;;6177060;23;20045;-85
2022/08/17 06:04:24;;;;;;;52.67;39.75;;;19.40;99.90;;;;;;6178740;22;20049;-85
2022/08/17 06:07:28;;;;;;;43.03;33.25;;;19.40;99.90;;;;;;6184544;23;20056;-85
2022/08/17 06:10:13;;;;;;;48.72;37.60;;;19.40;99.90;;;;;;6181303;23;20453;-85
2022/08/17 06:13:15;;;;;;;48.28;38.22;;;19.40;99.90;;;;;;6209377;23;20091;-85
2022/08/17 06:15:58;;;;;;;50.45;39.92;;;19.40;99.90;;;;;;6184657;23;20020;-85
2022/08/17 06:18:40;;;;;;;55.80;41.67;;;19.40;99.90;;;;;;6210166;23;20052;-85
2022/08/17 06:21:15;;;;;;;57.90;41.95;;;19.40;99.90;;;;;;6184842;23;20071;-85
2022/08/17 06:23:50;;;;;;;47.70;36.65;;;19.40;99.90;;;;;;6185041;23;20020;-85
2022/08/17 06:26:23;;;;;;;49.50;38.28;;;19.40;99.90;;;;;;6184402;23;20017;-85
2022/08/17 06:28:54;;;;;;;52.63;39.60;;;19.40;99.90;;;;;;6209846;23;20096;-85
2022/08/17 06:31:31;;;;;;;54.70;42.60;;;19.40;99.90;;;;;;6210140;23;20027;-85
2022/08/17 06:34:01;;;;;;;56.10;41.15;;;19.50;99.90;;;;;;6184690;23;20060;-85
2022/08/17 06:37:04;;;;;;;59.33;45.15;;;19.50;99.90;;;;;;6209918;23;20067;-85
2022/08/17 06:39:56;;;;;;;58.17;44.78;;;19.50;99.90;;;;;;6210233;23;20673;-85
2022/08/17 06:42:49;;;;;;;61.58;45.30;;;19.50;99.90;;;;;;6209315;23;20096;-85
2022/08/17 06:45:33;;;;;;;59.60;44.30;;;19.50;99.90;;;;;;6178600;23;20025;-85
2022/08/17 06:48:04;;;;;;;54.03;41.78;;;19.50;99.90;;;;;;6176712;23;20049;-85
2022/08/17 06:50:40;;;;;;;60.78;45.30;;;19.50;99.90;;;;;;6176472;23;20064;-85
2022/08/17 06:53:22;;;;;;;58.92;43.13;;;19.60;99.90;;;;;;6177996;23;20473;-85
2022/08/17 06:56:04;;;;;;;58.83;44.10;;;19.60;99.90;;;;;;6177700;23;20088;-85
2022/08/17 06:58:32;;;;;;;63.70;46.60;;;19.60;99.90;;;;;;6178733;23;20088;-85
2022/08/17 07:01:08;;;;;;;61.45;43.72;;;19.70;99.90;;;;;;6174464;23;20019;-85
2022/08/17 07:03:48;;;;;;;63.95;45.28;;;19.70;99.90;;;;;;6174770;23;20017;-85
2022/08/17 07:06:18;;;;;;;62.70;45.88;;;19.70;99.90;;;;;;6149957;23;20013;-85
2022/08/17 07:08:56;;;;;;;65.72;46.05;;;19.70;99.90;;;;;;6150168;23;20056;-85
2022/08/17 07:11:30;;;;;;;63.88;47.30;;;19.80;99.90;;;;;;6176271;23;20048;-85
2022/08/17 07:14:13;;;;;;;70.13;46.20;;;19.90;99.90;;;;;;6149590;23;20049;-85
2022/08/17 07:16:45;;;;;;;53.45;38.20;;;19.90;99.90;;;;;;6174187;23;20059;-85
2022/08/17 07:19:16;;;;;;;65.28;44.63;;;20.20;99.90;;;;;;6176682;23;20059;-85
2022/08/17 07:22:02;;;;;;;78.10;50.25;;;20.20;99.90;;;;;;6174609;23;20343;-85
2022/08/17 07:24:36;;;;;;;70.68;48.38;;;20.20;99.90;;;;;;6175972;22;20028;-85
2022/08/17 07:27:23;;;;;;;70.85;46.65;;;20.20;99.90;;;;;;6149768;23;20013;-85
2022/08/17 07:29:55;;;;;;;70.38;46.13;;;20.30;99.90;;;;;;6175933;23;20027;-85
2022/08/17 07:32:34;;;;;;;72.00;45.20;;;20.30;99.90;;;;;;6150003;23;20013;-85
2022/08/17 07:35:09;;;;;;;74.93;48.10;;;20.30;99.90;;;;;;6174794;23;20356;-85
2022/08/17 07:37:38;;;;;;;77.68;48.35;;;20.40;99.90;;;;;;6175823;22;20025;-85
2022/08/17 07:40:30;;;;;;;70.07;46.65;;;20.40;99.90;;;;;;6174292;23;20021;-85
2022/08/17 07:43:15;;;;;;;71.25;46.75;;;20.40;99.90;;;;;;6176331;23;20024;-85
2022/08/17 07:48:45;;;;;;;48.50;34.45;;;20.30;99.90;;;;;;6176133;22;20456;-85
2022/08/17 07:51:15;;;;;;;60.47;41.08;;;20.50;99.90;;;;;;6149406;23;20025;-85
2022/08/17 07:53:41;;;;;;;56.63;41.53;;;20.50;99.90;;;;;;6148888;22;20020;-85
2022/08/17 07:56:06;;;;;;;57.53;42.20;;;20.60;99.90;;;;;;6174570;22;20021;-85
2022/08/17 07:58:32;;;;;;;54.75;40.53;;;20.60;99.90;;;;;;6176463;22;20019;-85
2022/08/17 08:01:03;;;;;;;60.20;41.75;;;20.50;99.90;;;;;;6174386;22;20013;-86
2022/08/17 08:03:30;;;;;;;52.13;40.10;;;20.70;99.90;;;;;;6176398;22;20036;-85
2022/08/17 08:06:00;;;;;;;56.40;42.28;;;20.80;99.90;;;;;;6173939;23;20379;-85
2022/08/17 08:08:41;;;;;;;54.05;39.97;;;20.90;99.90;;;;;;6174342;23;20059;-85
2022/08/17 08:11:06;;;;;;;45.55;34.65;;;21.00;99.90;;;;;;6176435;23;20432;-85
2022/08/17 08:13:33;;;;;;;51.63;38.80;;;20.90;99.90;;;;;;6176390;22;20013;-85
2022/08/17 08:16:24;;;;;;;49.35;38.15;;;21.00;99.90;;;;;;6174475;23;20028;-85
2022/08/17 08:18:56;;;;;;;49.45;36.22;;;21.00;99.90;;;;;;6176079;23;20025;-85
2022/08/17 08:21:30;;;;;;;54.15;37.67;;;21.00;99.90;;;;;;6174976;23;20058;-85
2022/08/17 08:24:27;;;;;;;44.97;35.28;;;21.00;99.90;;;;;;6173545;23;20025;-85
2022/08/17 08:27:12;;;;;;;49.03;35.15;;;21.10;99.90;;;;;;6149267;23;20017;-85
2022/08/17 08:29:52;;;;;;;47.13;35.40;;;21.20;99.90;;;;;;6174328;23;20017;-85
2022/08/17 08:32:35;;;;;;;50.72;37.95;;;21.30;99.90;;;;;;6149545;23;20017;-85
2022/08/17 08:35:06;;;;;;;47.97;34.75;;;21.40;99.90;;;;;;6176001;23;20468;-85
2022/08/17 08:37:55;;;;;;;50.03;37.97;;;21.50;99.90;;;;;;6174022;23;20017;-85
2022/08/17 08:40:51;;;;;;;48.97;37.42;;;21.50;99.90;;;;;;6176005;23;20084;-85
2022/08/17 08:43:25;;;;;;;52.10;38.42;;;21.50;99.90;;;;;;6174871;22;20014;-85
2022/08/17 08:46:00;;;;;;;45.95;36.13;;;21.60;99.90;;;;;;6175900;23;20094;-85
2022/08/17 08:48:54;;;;;;;47.30;39.33;;;21.70;99.90;;;;;;6174412;22;20100;-85
2022/08/17 08:51:26;;;;;;;39.65;32.25;;;21.70;99.90;;;;;;6173849;23;20025;-85
2022/08/17 08:53:58;;;;;;;47.28;37.13;;;21.80;99.90;;;;;;6149228;23;20349;-85
2022/08/17 08:56:44;;;;;;;49.05;38.95;;;21.90;99.90;;;;;;6174708;22;20017;-85
2022/08/17 08:59:19;;;;;;;60.95;43.42;;;21.80;99.90;;;;;;6176513;23;20028;-85
2022/08/17 09:01:56;;;;;;;58.13;42.42;;;21.80;99.90;;;;;;6174198;23;20028;-85
2022/08/17 09:04:22;;;;;;;50.78;38.20;;;21.70;99.90;;;;;;6176202;22;20021;-85
2022/08/17 09:07:02;;;;;;;47.38;33.53;;;21.70;99.90;;;;;;6148323;22;20201;-85
2022/08/17 09:09:39;;;;;;;48.70;35.47;;;21.70;99.90;;;;;;6176277;22;20024;-85
2022/08/17 09:12:19;;;;;;;54.55;37.47;;;21.70;99.90;;;;;;6176123;22;20387;-85
2022/08/17 09:15:01;;;;;;;48.38;35.08;;;21.70;99.90;;;;;;6173709;23;20021;-85
2022/08/17 09:17:31;;;;;;;48.38;37.85;;;21.70;99.90;;;;;;6174046;23;20139;-85
2022/08/17 09:20:15;;;;;;;45.22;33.28;;;21.80;99.90;;;;;;6175764;22;20022;-84
2022/08/17 09:22:47;;;;;;;42.95;32.22;;;21.90;99.90;;;;;;6175486;23;20027;-84
2022/08/17 09:25:20;;;;;;;47.17;34.45;;;21.90;99.90;;;;;;6174037;23;20021;-85
2022/08/17 09:27:52;;;;;;;47.83;34.50;;;22.10;99.90;;;;;;6149599;23;20013;-85
2022/08/17 09:30:18;;;;;;;39.85;30.58;;;22.20;99.90;;;;;;6174112;23;20070;-85
2022/08/17 09:32:50;;;;;;;46.53;35.28;;;22.20;99.90;;;;;;6149045;23;20018;-85
2022/08/17 09:35:18;;;;;;;42.38;32.28;;;22.20;99.90;;;;;;6173506;23;20021;-85
2022/08/17 09:38:15;;;;;;;44.58;33.95;;;22.10;99.90;;;;;;6173413;23;20089;-85
2022/08/17 09:40:51;;;;;;;46.03;35.92;;;22.10;99.90;;;;;;6175642;22;20021;-85
2022/08/17 09:43:25;;;;;;;46.30;36.00;;;22.10;99.90;;;;;;6176087;23;20017;-85
2022/08/17 09:45:53;;;;;;;;;;;22.10;99.90;;;;;;6174104;22;20525;-85
2022/08/17 09:48:28;;;;;;;44.78;34.47;;;22.10;99.90;;;;;;6174359;23;20244;-85
2022/08/17 09:51:12;;;;;;;46.33;35.67;;;22.10;99.90;;;;;;6172606;23;20376;-84
2022/08/17 09:53:38;;;;;;;43.20;34.40;;;22.10;99.90;;;;;;6173766;23;20212;-85
2022/08/17 09:56:26;;;;;;;40.45;31.95;;;22.00;99.90;;;;;;6175383;23;20467;-84
2022/08/17 09:59:20;;;;;;;42.28;31.88;;;22.00;99.90;;;;;;6148613;22;20024;-85
2022/08/17 10:02:04;;;;;;;43.97;33.93;;;21.90;99.90;;;;;;6175618;23;20083;-84
2022/08/17 10:04:46;;;;;;;46.42;33.75;;;21.90;99.90;;;;;;6173234;22;20112;-85
2022/08/17 10:07:22;;;;;;;44.03;34.15;;;21.90;99.90;;;;;;6173543;23;20342;-85
2022/08/17 10:10:11;;;;;;;39.45;28.38;;;21.90;99.90;;;;;;6173400;23;20028;-85
2022/08/17 10:13:09;;;;;;;41.53;32.17;;;21.90;99.90;;;;;;6173138;23;20009;-85
2022/08/17 10:15:52;;;;;;;43.90;33.13;;;21.90;99.90;;;;;;6173654;23;20077;-85
2022/08/17 10:18:44;;;;;;;36.28;28.35;;;21.90;99.90;;;;;;6173171;23;20017;-85
2022/08/17 10:26:52;;;;;;;47.33;34.67;;;22.10;99.90;;;;;;6175411;22;20446;-85
2022/08/17 10:29:27;;;;;;;44.38;33.70;;;22.20;99.90;;;;;;6174077;23;20014;-85
2022/08/17 10:31:58;;;;;;;42.88;31.38;;;22.20;99.90;;;;;;6175307;22;20021;-85
2022/08/17 10:34:44;;;;;;;51.15;36.20;;;22.20;99.90;;;;;;6175027;23;20017;-85
2022/08/17 10:37:10;;;;;;;52.55;39.25;;;22.30;99.90;;;;;;6175082;23;20030;-85
2022/08/17 10:40:06;;;;;;;51.58;41.55;;;22.30;99.90;;;;;;6176886;22;20385;-85
2022/08/17 10:42:44;;;;;;;54.17;41.20;;;22.30;99.90;;;;;;6175271;23;20524;-85
2022/08/17 10:45:28;;;;;;;53.22;39.75;;;22.30;99.90;;;;;;6176712;23;20025;-85
2022/08/17 10:48:00;;;;;;;55.35;43.00;;;22.40;99.90;;;;;;6174121;22;20471;-85
2022/08/17 10:50:58;;;;;;;55.75;40.92;;;22.50;99.90;;;;;;6149754;23;20102;-85
2022/08/17 10:53:31;;;;;;;48.58;37.78;;;22.50;99.90;;;;;;6176895;23;20056;-85
2022/08/17 10:56:12;;;;;;;48.55;39.80;;;22.50;99.90;;;;;;6176223;22;20327;-85
2022/08/17 10:58:57;;;;;;;48.78;38.15;;;22.60;99.90;;;;;;6176223;22;20025;-85
2022/08/17 11:01:32;;;;;;;40.80;32.75;;;22.70;99.90;;;;;;6174820;23;20379;-85
2022/08/17 11:04:09;;;;;;;40.90;33.20;;;22.80;99.90;;;;;;6174904;22;20032;-85
2022/08/17 11:06:45;;;;;;;49.28;38.88;;;22.90;99.90;;;;;;6149689;23;20520;-85
2022/08/17 11:09:22;;;;;;;43.97;36.92;;;23.00;99.90;;;;;;6150262;23;20031;-85
2022/08/17 11:11:54;;;;;;;43.35;36.97;;;23.10;99.90;;;;;;6173942;22;20075;-85
2022/08/17 11:14:46;;;;;;;45.97;38.60;;;23.20;99.90;;;;;;6174964;22;20597;-85
2022/08/17 11:17:30;;;;;;;47.85;39.65;;;23.40;99.90;;;;;;6174603;23;20013;-85
2022/08/17 11:20:17;;;;;;;44.10;34.78;;;23.60;99.90;;;;;;6174847;23;20013;-85
2022/08/17 11:23:25;;;;;;;40.72;35.65;;;23.80;99.90;;;;;;6176117;23;20013;-85
2022/08/17 11:25:54;;;;;;;38.35;31.88;;;24.00;99.90;;;;;;6185989;23;20457;-85
2022/08/17 11:28:34;;;;;;;36.67;31.77;;;24.20;99.90;;;;;;6174302;23;20049;-85
2022/08/17 11:31:22;;;;;;;41.97;34.05;;;24.30;99.90;;;;;;6174147;23;20350;-85
2022/08/17 11:33:54;;;;;;;39.78;33.60;;;24.50;99.90;;;;;;6176404;23;20020;-85
2022/08/17 11:36:32;;;;;;;40.05;35.70;;;24.60;99.90;;;;;;6174376;23;20416;-85
2022/08/17 11:39:14;;;;;;;38.40;34.00;;;24.70;99.90;;;;;;6174865;22;20017;-85
2022/08/17 11:42:04;;;;;;;39.50;33.92;;;24.70;99.90;;;;;;6174185;22;20021;-86
2022/08/17 11:44:50;;;;;;;32.15;27.85;;;24.70;99.90;;;;;;6174907;23;20047;-85
2022/08/17 11:53:38;;;;;;;32.13;25.42;;;24.50;99.90;;;;;;6174507;23;20393;-85
2022/08/17 11:56:28;;;;;;;34.17;25.98;;;24.30;99.90;;;;;;6174453;23;20456;-85
2022/08/17 11:58:55;;;;;;;27.60;22.88;;;24.40;99.90;;;;;;6148921;23;20028;-85
2022/08/17 12:01:25;;;;;;;26.65;20.80;;;24.30;99.90;;;;;;6174351;23;20099;-85
2022/08/17 12:03:56;;;;;;;23.40;18.85;;;24.30;99.90;;;;;;6175566;22;20025;-85
2022/08/17 12:06:47;;;;;;;22.83;19.45;;;24.30;99.90;;;;;;6174731;23;20056;-86
2022/08/17 12:09:23;;;;;;;23.70;18.98;;;24.40;99.90;;;;;;6176160;23;20502;-85
2022/08/17 12:12:15;;;;;;;24.38;19.67;;;24.50;99.90;;;;;;6176004;23;20361;-85
2022/08/17 12:14:48;;;;;;;18.15;16.17;;;24.50;99.90;;;;;;6175078;23;20013;-85
2022/08/17 12:17:19;;;;;;;21.10;17.02;;;24.40;99.90;;;;;;6176295;23;20074;-85
2022/08/17 12:19:45;;;;;;;19.10;15.90;;;24.40;99.90;;;;;;6174105;23;20025;-85
2022/08/17 12:22:25;;;;;;;22.20;16.63;;;24.40;99.90;;;;;;6176334;22;20025;-85
2022/08/17 12:25:12;;;;;;;19.48;15.95;;;24.40;99.90;;;;;;6174183;22;20061;-85
2022/08/17 12:27:45;;;;;;;17.10;14.13;;;24.50;99.90;;;;;;6174043;23;20024;-85
2022/08/17 12:30:14;;;;;;;16.25;12.40;;;24.60;99.90;;;;;;6149257;23;20025;-85
2022/08/17 12:32:40;;;;;;;13.80;12.25;;;24.60;99.90;;;;;;6175078;23;20476;-85
2022/08/17 12:35:37;;;;;;;14.35;12.70;;;24.70;99.90;;;;;;6174561;23;20021;-85
2022/08/17 12:38:07;;;;;;;14.27;11.57;;;24.80;99.90;;;;;;6174506;23;20048;-85
2022/08/17 12:40:33;;;;;;;15.93;13.20;;;24.90;99.90;;;;;;6176086;23;20065;-86
2022/08/17 12:43:07;;;;;;;17.60;15.07;;;25.10;99.90;;;;;;6174461;22;20640;-85
2022/08/17 12:45:40;;;;;;;17.63;15.63;;;24.90;99.90;;;;;;6174078;23;20017;-85
2022/08/17 12:48:08;;;;;;;17.73;12.95;;;24.90;99.90;;;;;;6175992;23;20024;-85
2022/08/17 12:50:43;;;;;;;20.92;13.25;;;25.00;99.90;;;;;;6175040;23;20437;-85
2022/08/17 12:53:20;;;;;;;15.13;13.48;;;24.90;99.90;;;;;;6149450;23;20460;-85
2022/08/17 12:55:47;;;;;;;17.38;14.30;;;25.00;99.90;;;;;;6148910;23;20017;-85
2022/08/17 12:58:20;;;;;;;18.35;15.13;;;24.90;99.90;;;;;;6123667;23;20028;-85
2022/08/17 13:00:49;;;;;;;17.60;13.80;;;24.80;99.90;;;;;;6175716;22;20091;-85
2022/08/17 13:03:19;;;;;;;17.77;13.95;;;24.80;99.90;;;;;;6175946;23;20132;-86
2022/08/17 13:05:51;;;;;;;14.32;12.55;;;24.80;99.90;;;;;;6124312;23;20021;-85
2022/08/17 13:08:34;;;;;;;15.02;12.93;;;24.70;99.90;;;;;;6124511;23;20017;-85
2022/08/17 13:11:23;;;;;;;16.48;13.98;;;24.70;99.90;;;;;;6175933;23;20040;-85
2022/08/17 13:13:54;;;;;;;18.33;13.82;;;24.60;99.90;;;;;;6148189;23;20421;-85
2022/08/17 13:16:30;;;;;;;18.77;14.30;;;24.50;99.90;;;;;;6149578;23;20033;-86
2022/08/17 13:19:11;;;;;;;16.65;14.18;;;24.40;99.90;;;;;;6149379;23;20353;-85
2022/08/17 13:21:44;;;;;;;15.48;13.88;;;24.40;99.90;;;;;;6149361;22;20092;-85
2022/08/17 13:24:10;;;;;;;19.00;13.13;;;24.40;99.90;;;;;;6125321;23;20449;-85
2022/08/17 13:26:50;;;;;;;14.88;12.30;;;24.30;99.90;;;;;;6175083;23;20025;-85
2022/08/17 13:29:27;;;;;;;16.35;14.55;;;24.30;99.90;;;;;;6149305;23;20295;-85